Time;durP1;ratioP1;P1;durP2;ratioP2;P2;SDS_P1;SDS_P2;PMS_P1;PMS_P2;Temp;Humidity;BMP_temperature;BMP_pressure;BME280_temperature;BME280_humidity;BME280_pressure;Samples;Min_cycle;Max_cycle;Signal;HPM_P1;HPM_P2
2022/07/14 00:02:10;;;;;;;10.85;7.28;;;;;;;17.80;83.52;98849.59;5089513;28;20043;-43
2022/07/14 00:04:36;;;;;;;16.40;6.70;;;;;;;17.97;83.54;98879.88;5089076;28;20420;-40
2022/07/14 00:07:02;;;;;;;10.98;6.40;;;;;;;17.88;83.83;98863.00;5088403;28;20035;-38
2022/07/14 00:09:27;;;;;;;13.90;6.82;;;;;;;17.99;83.95;98876.19;5071437;28;20043;-38
2022/07/14 00:11:53;;;;;;;15.20;7.00;;;;;;;17.99;83.98;98873.53;5089632;28;20040;-39
2022/07/14 00:14:20;;;;;;;14.73;6.82;;;;;;;18.01;83.88;98878.66;5089027;28;20071;-40
2022/07/14 00:16:46;;;;;;;12.43;6.70;;;;;;;18.03;84.06;98874.97;5088527;28;20055;-39
2022/07/14 00:19:11;;;;;;;14.27;8.15;;;;;;;18.04;84.21;98871.41;5071472;28;20032;-39
2022/07/14 00:21:37;;;;;;;14.93;7.00;;;;;;;18.09;84.29;98873.66;5069434;28;20040;-40
2022/07/14 00:24:03;;;;;;;10.77;6.53;;;;;;;18.12;84.24;98869.00;5087770;28;20536;-40
2022/07/14 00:26:29;;;;;;;14.85;7.97;;;;;;;18.09;83.79;98861.34;5068741;28;20139;-39
2022/07/14 00:28:55;;;;;;;12.23;6.70;;;;;;;18.24;83.70;98882.16;5087716;28;20039;-39
2022/07/14 00:31:21;;;;;;;13.27;6.30;;;;;;;18.25;83.38;98868.03;5087859;28;20039;-39
2022/07/14 00:33:48;;;;;;;16.55;7.35;;;;;;;18.18;83.53;98859.78;5087978;28;20051;-48
2022/07/14 00:36:14;;;;;;;15.95;7.05;;;;;;;18.29;83.56;98869.47;5037975;28;20515;-39
2022/07/14 00:38:40;;;;;;;15.20;7.60;;;;;;;18.33;83.79;98865.63;5088968;28;20051;-43
2022/07/14 00:41:08;;;;;;;17.13;7.03;;;;;;;18.37;83.91;98856.56;5037986;28;20466;-42
2022/07/14 00:43:35;;;;;;;10.02;6.22;;;;;;;18.42;84.35;98846.50;5051485;28;20094;-39
2022/07/14 00:46:00;;;;;;;11.00;7.20;;;;;;;18.48;84.31;98848.63;5081934;28;20043;-39
2022/07/14 00:48:27;;;;;;;12.85;7.15;;;;;;;18.50;84.31;98851.97;5070930;28;20043;-39
2022/07/14 00:50:53;;;;;;;15.98;7.78;;;;;;;18.45;84.05;98840.97;5070736;28;20543;-39
2022/07/14 00:53:20;;;;;;;16.83;7.95;;;;;;;18.54;83.81;98848.16;5088937;28;20075;-39
2022/07/14 00:55:46;;;;;;;12.95;7.13;;;;;;;18.55;83.34;98847.22;5070655;28;20127;-39
2022/07/14 00:58:12;;;;;;;14.73;7.88;;;;;;;18.57;83.34;98846.13;5088846;28;20075;-39
2022/07/14 01:00:38;;;;;;;12.35;7.20;;;;;;;18.63;83.25;98843.97;5085616;28;20051;-39
2022/07/14 01:03:06;;;;;;;9.07;7.10;;;;;;;18.65;83.31;98840.22;5054376;28;20046;-39
2022/07/14 01:05:32;;;;;;;14.75;8.93;;;;;;;18.69;83.20;98828.50;5088992;28;20085;-39
2022/07/14 01:07:58;;;;;;;14.75;7.57;;;;;;;18.73;83.18;98837.84;5088248;28;20047;-39
2022/07/14 01:10:24;;;;;;;12.23;7.95;;;;;;;18.77;82.87;98833.16;5070982;28;20043;-38
2022/07/14 01:12:50;;;;;;;12.18;8.05;;;;;;;18.69;82.70;98815.31;5088713;28;20044;-38
2022/07/14 01:15:18;;;;;;;14.25;8.75;;;;;;;18.78;82.51;98824.28;5070143;28;20040;-39
2022/07/14 01:17:47;;;;;;;18.45;8.07;;;;;;;18.83;82.39;98822.97;5089606;28;20043;-39
2022/07/14 01:20:14;;;;;;;14.15;8.30;;;;;;;18.84;82.75;98815.91;5092562;28;20043;-39
2022/07/14 01:22:40;;;;;;;14.02;8.75;;;;;;;18.76;82.40;98802.50;5057758;28;20032;-39
2022/07/14 01:25:07;;;;;;;13.05;8.63;;;;;;;18.84;82.11;98814.06;5073706;28;20093;-38
2022/07/14 01:27:36;;;;;;;19.95;8.20;;;;;;;18.84;82.08;98805.34;5085591;28;20040;-39
2022/07/14 01:30:05;;;;;;;16.58;8.43;;;;;;;18.85;82.22;98805.22;5074015;28;20059;-38
2022/07/14 01:32:30;;;;;;;15.80;9.00;;;;;;;18.85;82.21;98809.63;5057634;28;20123;-38
2022/07/14 01:34:56;;;;;;;14.63;8.85;;;;;;;18.85;81.95;98810.47;5091455;28;20147;-38
2022/07/14 01:37:22;;;;;;;12.27;8.82;;;;;;;18.84;81.89;98810.63;5074305;28;20097;-38
2022/07/14 01:39:48;;;;;;;16.38;8.93;;;;;;;18.85;81.86;98807.00;5056617;28;20036;-39
2022/07/14 01:42:15;;;;;;;14.48;8.48;;;;;;;18.88;81.78;98814.69;5073555;28;20043;-38
2022/07/14 01:44:40;;;;;;;15.82;8.90;;;;;;;18.90;81.60;98805.66;5072372;28;20131;-38
2022/07/14 01:47:06;;;;;;;18.80;9.38;;;;;;;18.92;81.50;98816.09;5074241;28;20119;-39
2022/07/14 01:49:32;;;;;;;15.93;8.32;;;;;;;18.94;81.05;98816.81;5073868;28;20511;-39
2022/07/14 01:52:02;;;;;;;18.17;9.45;;;;;;;18.97;81.10;98814.75;5073371;28;20047;-39
2022/07/14 01:54:30;;;;;;;15.93;9.35;;;;;;;18.99;80.59;98812.84;5073755;28;20044;-38
2022/07/14 01:56:56;;;;;;;13.93;8.90;;;;;;;19.00;80.16;98808.38;5073828;28;20504;-38
2022/07/14 01:59:22;;;;;;;13.98;9.15;;;;;;;19.03;80.13;98810.78;5073214;28;20118;-39
2022/07/14 02:01:49;;;;;;;13.85;8.30;;;;;;;19.00;80.02;98800.47;5073917;28;20510;-39
2022/07/14 02:04:17;;;;;;;16.65;9.05;;;;;;;19.09;79.89;98810.28;5072470;28;20059;-38
2022/07/14 02:06:49;;;;;;;11.57;8.20;;;;;;;19.05;79.84;98782.50;5091633;28;20032;-39
2022/07/14 02:12:13;;;;;;;14.68;8.40;;;;;;;19.28;79.07;98805.13;5070375;28;20048;-39
2022/07/14 02:14:41;;;;;;;13.13;8.80;;;;;;;19.34;78.29;98804.63;5076029;28;20599;-39
2022/07/14 02:17:07;;;;;;;16.13;9.13;;;;;;;19.42;77.60;98798.69;5073376;28;20093;-38
2022/07/14 02:19:35;;;;;;;13.70;8.25;;;;;;;19.41;77.08;98783.84;5073309;28;20048;-39
2022/07/14 02:22:01;;;;;;;13.25;8.23;;;;;;;19.55;76.72;98801.16;5071708;28;20553;-39
2022/07/14 02:24:27;;;;;;;16.23;7.97;;;;;;;19.60;76.67;98799.81;5090899;28;20056;-39
2022/07/14 02:26:52;;;;;;;12.98;7.88;;;;;;;19.66;76.24;98801.06;5073125;28;20129;-38
2022/07/14 02:29:20;;;;;;;10.95;8.15;;;;;;;19.71;75.77;98802.34;5058415;28;20040;-39
2022/07/14 02:31:46;;;;;;;13.73;8.10;;;;;;;19.75;75.30;98803.75;5071015;28;20039;-39
2022/07/14 02:34:14;;;;;;;15.15;8.73;;;;;;;19.78;74.70;98821.13;5070950;28;20076;-39
2022/07/14 02:36:40;;;;;;;12.23;7.43;;;;;;;19.79;74.29;98833.34;5072514;28;20109;-39
2022/07/14 02:39:07;;;;;;;12.45;7.57;;;;;;;19.73;73.73;98870.81;5056149;28;20040;-39
2022/07/14 02:41:33;;;;;;;14.55;7.57;;;;;;;19.54;73.95;98875.94;5090381;28;20046;-39
2022/07/14 02:43:59;;;;;;;14.18;7.40;;;;;;;19.42;72.70;98864.59;5072740;28;20036;-38
2022/07/14 02:46:26;;;;;;;9.45;6.30;;;;;;;19.44;70.90;98855.63;5072150;28;20047;-39
2022/07/14 02:48:52;;;;;;;18.83;6.43;;;;;;;19.46;70.19;98831.78;5055884;28;20081;-38
2022/07/14 02:51:18;;;;;;;13.70;6.43;;;;;;;19.58;69.38;98848.34;5071644;28;20561;-39
2022/07/14 02:53:45;;;;;;;13.15;6.10;;;;;;;19.71;67.88;98863.00;5080834;28;20090;-39
2022/07/14 02:56:12;;;;;;;15.13;6.20;;;;;;;19.76;66.57;98863.47;5072147;28;20473;-39
2022/07/14 02:58:39;;;;;;;12.25;5.38;;;;;;;19.82;65.79;98870.03;5072251;28;20127;-39
2022/07/14 03:01:06;;;;;;;14.18;4.80;;;;;;;19.73;63.75;98837.31;5089765;28;20571;-40
2022/07/14 03:03:37;;;;;;;10.00;4.50;;;;;;;19.77;63.17;98838.75;5055351;28;20054;-39
2022/07/14 03:06:15;;;;;;;8.63;4.18;;;;;;;19.98;60.01;98870.38;5072786;28;20173;-39
2022/07/14 03:08:44;;;;;;;9.27;3.40;;;;;;;20.01;60.52;98859.56;5072242;28;20427;-40
2022/07/14 03:11:11;;;;;;;9.60;3.20;;;;;;;19.92;57.91;98844.53;5055931;28;20040;-39
2022/07/14 03:13:38;;;;;;;7.82;3.28;;;;;;;20.02;56.66;98869.16;5055206;28;20040;-39
2022/07/14 03:16:08;;;;;;;7.35;3.22;;;;;;;20.04;55.78;98866.38;5089336;28;20516;-38
2022/07/14 03:18:39;;;;;;;6.53;2.55;;;;;;;19.94;55.74;98842.56;5071854;28;20040;-39
2022/07/14 03:21:10;;;;;;;10.48;2.70;;;;;;;20.06;55.78;98865.25;5055143;28;20036;-39
2022/07/14 03:23:39;;;;;;;7.72;2.90;;;;;;;20.05;54.86;98863.59;5044151;28;20146;-40
2022/07/14 03:26:07;;;;;;;5.93;2.53;;;;;;;20.03;55.21;98846.22;5064919;28;20043;-39
2022/07/14 03:28:33;;;;;;;4.70;2.38;;;;;;;20.04;55.15;98847.91;5031842;28;20045;-39
2022/07/14 03:31:02;;;;;;;5.95;2.95;;;;;;;20.04;55.64;98838.19;5055630;28;20048;-40
2022/07/14 03:33:28;;;;;;;8.07;2.47;;;;;;;20.05;55.54;98823.16;5031328;28;20056;-40
2022/07/14 03:35:54;;;;;;;3.20;2.17;;;;;;;20.04;55.09;98827.63;5040278;28;20041;-39
2022/07/14 03:38:21;;;;;;;4.03;2.45;;;;;;;19.99;55.17;98824.56;5044972;28;20477;-40
2022/07/14 03:40:50;;;;;;;6.22;2.20;;;;;;;20.05;55.30;98839.84;5047821;28;20059;-39
2022/07/14 03:43:16;;;;;;;4.22;2.60;;;;;;;20.01;55.11;98827.88;5065154;28;20045;-39
2022/07/14 03:45:44;;;;;;;5.57;2.00;;;;;;;19.94;54.69;98852.31;5064283;28;20049;-39
2022/07/14 03:48:12;;;;;;;4.07;2.30;;;;;;;19.79;54.97;98836.81;5047852;28;20505;-40
2022/07/14 03:50:43;;;;;;;6.63;2.25;;;;;;;19.82;54.80;98836.56;5031362;28;20111;-39
2022/07/14 03:53:09;;;;;;;4.45;2.35;;;;;;;19.62;55.76;98803.16;5052440;28;20124;-39
2022/07/14 03:55:35;;;;;;;6.63;2.33;;;;;;;19.69;56.77;98820.09;5057416;28;20148;-38
2022/07/14 03:58:02;;;;;;;4.35;2.50;;;;;;;19.68;57.36;98799.16;5047265;28;20044;-40
2022/07/14 04:00:30;;;;;;;2.30;2.07;;;;;;;19.71;57.70;98796.25;5047501;28;20072;-39
2022/07/14 04:02:56;;;;;;;6.15;2.50;;;;;;;19.77;58.31;98787.81;5064789;28;20853;-39
2022/07/14 04:05:26;;;;;;;5.53;3.03;;;;;;;19.83;59.20;98774.09;5041977;28;20561;-39
2022/07/14 04:07:57;;;;;;;4.57;2.47;;;;;;;19.90;60.00;98772.56;5064397;28;20037;-39
2022/07/14 04:10:25;;;;;;;3.58;2.67;;;;;;;19.94;61.10;98767.88;5047646;28;20090;-39
2022/07/14 04:12:52;;;;;;;6.80;2.58;;;;;;;19.99;61.99;98761.25;5031277;28;20041;-39
2022/07/14 04:15:18;;;;;;;3.67;2.70;;;;;;;20.06;62.69;98757.06;5031050;28;20102;-40
2022/07/14 04:17:44;;;;;;;3.58;2.40;;;;;;;20.16;62.81;98752.66;5030299;28;20103;-38
2022/07/14 04:20:10;;;;;;;4.00;2.35;;;;;;;20.28;62.88;98748.09;5047552;28;20037;-39
2022/07/14 04:22:38;;;;;;;3.40;2.50;;;;;;;20.38;62.97;98751.63;5047588;28;20053;-40
2022/07/14 04:25:05;;;;;;;3.30;2.38;;;;;;;20.55;63.17;98758.03;5047375;28;20525;-40
2022/07/14 04:27:32;;;;;;;3.88;2.33;;;;;;;20.71;62.76;98753.03;5044548;28;20041;-39
2022/07/14 04:30:00;;;;;;;5.50;2.50;;;;;;;20.82;62.41;98758.19;5047070;28;20067;-40
2022/07/14 04:32:25;;;;;;;3.40;2.38;;;;;;;20.87;62.31;98740.09;5045148;28;20052;-39
2022/07/14 04:34:51;;;;;;;4.82;2.95;;;;;;;20.91;62.19;98746.75;5045252;28;20033;-39
2022/07/14 04:37:18;;;;;;;3.30;2.40;;;;;;;20.96;62.26;98751.63;5047830;28;20040;-40
2022/07/14 04:39:45;;;;;;;2.85;2.45;;;;;;;21.01;62.38;98744.09;5063785;28;20049;-39
2022/07/14 04:42:11;;;;;;;6.32;2.60;;;;;;;21.03;62.49;98755.38;5047186;28;20041;-41
2022/07/14 04:44:41;;;;;;;3.92;2.53;;;;;;;21.01;62.67;98763.44;5047356;28;20037;-39
2022/07/14 04:47:08;;;;;;;5.53;3.47;;;;;;;21.02;62.92;98756.34;5063689;28;20045;-38
2022/07/14 04:52:20;;;;;;;5.72;2.80;;;;;;;21.01;62.55;98746.75;5048087;28;20052;-40
2022/07/14 04:55:04;;;;;;;5.45;2.60;;;;;;;21.03;62.48;98743.00;5067334;28;20041;-40
2022/07/14 04:58:00;;;;;;;6.35;3.28;;;;;;;21.04;63.08;98741.19;5039312;28;20088;-39
2022/07/14 05:00:27;;;;;;;7.13;3.40;;;;;;;21.06;63.49;98736.59;5034372;28;20445;-41
2022/07/14 05:02:53;;;;;;;5.47;3.40;;;;;;;21.13;64.11;98733.25;5051194;28;20045;-40
2022/07/14 05:05:20;;;;;;;12.02;4.10;;;;;;;21.23;64.12;98738.53;5064754;28;20643;-40
2022/07/14 05:07:47;;;;;;;13.18;3.83;;;;;;;21.27;63.57;98713.47;5051308;28;20045;-39
2022/07/14 05:10:14;;;;;;;10.05;3.78;;;;;;;21.52;63.24;98726.06;5050828;28;20057;-39
2022/07/14 05:12:40;;;;;;;9.32;3.78;;;;;;;21.68;63.87;98712.19;5051186;28;20133;-38
2022/07/14 05:15:06;;;;;;;11.52;3.90;;;;;;;21.85;63.54;98721.19;5067445;28;20037;-39
2022/07/14 05:17:33;;;;;;;11.18;4.25;;;;;;;22.03;62.48;98708.88;5049292;28;20512;-40
2022/07/14 05:20:03;;;;;;;7.43;4.07;;;;;;;22.21;61.83;98712.34;5066419;28;20048;-40
2022/07/14 05:22:37;;;;;;;7.00;4.18;;;;;;;22.42;59.92;98706.78;5050814;28;20041;-40
2022/07/14 05:25:07;;;;;;;13.60;4.35;;;;;;;22.70;58.81;98718.13;5050583;28;20040;-39
2022/07/14 05:27:34;;;;;;;6.40;3.10;;;;;;;22.93;57.30;98721.97;5049512;28;20120;-41
2022/07/14 05:30:00;;;;;;;8.93;4.18;;;;;;;23.14;56.18;98722.47;5050466;28;20037;-39
2022/07/14 05:32:27;;;;;;;9.82;3.95;;;;;;;23.29;55.31;98717.41;5051153;28;20123;-39
2022/07/14 05:34:54;;;;;;;8.32;4.63;;;;;;;23.42;54.41;98709.88;5067239;28;20048;-39
2022/07/14 05:37:21;;;;;;;9.70;4.10;;;;;;;23.61;53.38;98708.81;5051878;28;20052;-39
2022/07/14 05:39:47;;;;;;;5.53;3.83;;;;;;;23.77;52.25;98718.69;5049552;28;20128;-41
2022/07/14 05:42:13;;;;;;;10.30;3.50;;;;;;;23.81;51.86;98704.97;5050421;28;20123;-40
2022/07/14 05:44:39;;;;;;;8.95;3.50;;;;;;;23.86;51.99;98704.47;5037445;28;20049;-40
2022/07/14 05:47:06;;;;;;;8.20;3.50;;;;;;;23.92;52.18;98704.66;5021014;28;20044;-39
2022/07/14 05:49:32;;;;;;;10.55;3.28;;;;;;;23.88;52.77;98699.81;5053692;28;20115;-41
2022/07/14 05:52:02;;;;;;;9.50;3.75;;;;;;;23.82;52.42;98700.47;5066417;28;20094;-38
2022/07/14 05:54:29;;;;;;;9.48;3.97;;;;;;;23.72;52.31;98703.25;5065090;28;20076;-39
2022/07/14 05:56:55;;;;;;;12.50;3.92;;;;;;;23.53;52.21;98680.44;5062247;28;20517;-40
2022/07/14 05:59:21;;;;;;;5.63;3.00;;;;;;;23.54;53.19;98682.13;5060511;28;20131;-40
2022/07/14 06:01:47;;;;;;;9.25;3.45;;;;;;;23.61;53.52;98683.13;5061393;28;20092;-39
2022/07/14 06:04:13;;;;;;;11.02;3.88;;;;;;;23.72;52.79;98689.13;5066503;28;20123;-39
2022/07/14 06:06:47;;;;;;;8.95;3.40;;;;;;;23.85;52.83;98678.91;5065480;28;20044;-39
2022/07/14 06:09:14;;;;;;;6.80;3.42;;;;;;;23.98;52.69;98677.44;5066249;28;20055;-40
2022/07/14 06:11:41;;;;;;;7.40;3.60;;;;;;;24.00;52.17;98664.03;5051216;28;20051;-39
2022/07/14 06:14:07;;;;;;;7.65;3.60;;;;;;;24.18;52.56;98674.56;5049845;28;20099;-39
2022/07/14 06:16:34;;;;;;;13.23;3.70;;;;;;;24.32;52.56;98666.78;5037569;28;20040;-39
2022/07/14 06:19:01;;;;;;;15.38;8.68;;;;;;;24.45;50.95;98667.09;5049444;28;20044;-40
2022/07/14 06:21:27;;;;;;;12.35;4.18;;;;;;;24.49;50.83;98670.28;5046874;28;20049;-39
2022/07/14 06:23:53;;;;;;;9.00;3.47;;;;;;;24.36;51.44;98659.28;5016524;28;20475;-40
2022/07/14 06:26:19;;;;;;;9.45;3.28;;;;;;;24.25;51.99;98668.41;5065312;28;20045;-39
2022/07/14 06:28:46;;;;;;;11.68;4.30;;;;;;;24.08;52.70;98674.66;5041014;28;20052;-39
2022/07/14 06:31:13;;;;;;;4.47;3.22;;;;;;;24.02;52.40;98668.16;5065614;28;20056;-40
2022/07/14 06:33:39;;;;;;;7.93;3.28;;;;;;;24.14;51.03;98674.00;5037764;28;20525;-40
2022/07/14 06:36:26;;;;;;;5.40;3.15;;;;;;;24.63;49.90;98666.94;5039138;28;20041;-39
2022/07/14 06:38:52;;;;;;;7.95;3.83;;;;;;;25.12;47.68;98670.41;5049597;28;20493;-39
2022/07/14 06:41:22;;;;;;;10.60;3.60;;;;;;;25.72;44.41;98659.25;5032477;28;20127;-40
2022/07/14 06:43:49;;;;;;;7.43;3.50;;;;;;;26.62;43.80;98668.38;5060768;28;20045;-39
2022/07/14 06:46:16;;;;;;;7.20;3.05;;;;;;;27.51;41.95;98667.53;5049369;28;20081;-40
2022/07/14 06:48:42;;;;;;;11.68;5.93;;;;;;;28.41;40.48;98662.66;5050252;28;20467;-40
2022/07/14 06:51:08;;;;;;;7.35;3.58;;;;;;;28.84;39.24;98654.63;5065405;28;20033;-39
2022/07/14 06:53:35;;;;;;;7.55;4.47;;;;;;;29.33;37.57;98655.41;5032373;28;20045;-39
2022/07/14 06:56:01;;;;;;;7.65;3.15;;;;;;;28.92;37.33;98655.31;5040074;28;20880;-39
2022/07/14 06:58:27;;;;;;;11.25;4.57;;;;;;;28.80;37.44;98651.50;5047516;28;20102;-39
2022/07/14 07:00:53;;;;;;;4.70;2.95;;;;;;;28.58;37.77;98652.50;5048493;28;20556;-40
2022/07/14 07:03:19;;;;;;;9.00;3.75;;;;;;;28.47;37.64;98651.19;5054762;28;20158;-40
2022/07/14 07:08:30;;;;;;;5.10;3.80;;;;;;;29.43;35.75;98653.19;5060798;28;20047;-40
2022/07/14 07:10:56;;;;;;;5.22;3.08;;;;;;;29.39;35.81;98653.78;5049900;28;20036;-41
2022/07/14 07:13:24;;;;;;;7.03;3.50;;;;;;;28.93;36.48;98654.28;5030350;28;20051;-39
2022/07/14 07:15:49;;;;;;;9.23;4.18;;;;;;;28.82;37.09;98644.13;5048966;28;20043;-40
2022/07/14 07:18:16;;;;;;;9.00;3.55;;;;;;;29.13;37.23;98643.72;5049965;28;20044;-41
2022/07/14 07:20:43;;;;;;;9.02;3.47;;;;;;;29.35;35.22;98639.97;5047391;28;20091;-40
2022/07/14 07:23:09;;;;;;;6.25;3.13;;;;;;;29.41;34.36;98633.84;5057075;28;20056;-40
2022/07/14 07:25:35;;;;;;;6.78;3.15;;;;;;;29.25;34.08;98635.97;5077557;28;20048;-40
2022/07/14 07:28:01;;;;;;;9.95;4.20;;;;;;;29.20;34.94;98649.94;5062004;28;20833;-39
2022/07/14 07:30:27;;;;;;;5.65;3.17;;;;;;;29.12;34.91;98639.38;5074161;28;20085;-41
2022/07/14 07:32:53;;;;;;;5.43;2.80;;;;;;;28.97;34.58;98644.03;5102428;28;20127;-40
2022/07/14 07:35:19;;;;;;;7.55;2.65;;;;;;;28.03;34.84;98643.31;5069714;28;20075;-41
2022/07/14 07:37:46;;;;;;;6.50;3.03;;;;;;;27.13;35.60;98637.41;5088811;28;20035;-42
2022/07/14 07:40:12;;;;;;;9.85;2.58;;;;;;;26.34;36.47;98646.75;5088953;28;20044;-43
2022/07/14 07:42:38;;;;;;;5.22;2.67;;;;;;;25.85;37.56;98659.53;5096723;28;20081;-41
2022/07/14 07:45:04;;;;;;;7.20;3.10;;;;;;;25.48;38.52;98662.84;5094479;28;20047;-40
2022/07/14 07:47:30;;;;;;;6.22;2.90;;;;;;;25.25;39.42;98677.88;5098896;28;20046;-41
2022/07/14 07:49:56;;;;;;;13.38;3.65;;;;;;;24.93;39.97;98672.59;5077775;28;20036;-39
2022/07/14 07:52:22;;;;;;;9.02;2.78;;;;;;;24.53;40.71;98668.09;5096750;28;20534;-39
2022/07/14 07:54:48;;;;;;;4.50;2.53;;;;;;;24.16;42.15;98673.84;5079361;28;20062;-40
2022/07/14 07:57:15;;;;;;;4.97;2.30;;;;;;;23.61;44.15;98688.44;5078852;28;20050;-40
2022/07/14 07:59:41;;;;;;;3.97;2.55;;;;;;;23.18;46.76;98696.47;5061782;28;20400;-39
2022/07/14 08:02:08;;;;;;;8.93;3.40;;;;;;;21.79;55.55;98684.72;5103372;28;20043;-41
2022/07/14 08:04:34;;;;;;;6.93;3.47;;;;;;;20.87;59.65;98657.34;5090890;28;20047;-39
2022/07/14 08:07:00;;;;;;;10.00;4.30;;;;;;;20.64;62.19;98623.31;5079131;28;20039;-41
2022/07/14 08:09:26;;;;;;;10.55;4.18;;;;;;;20.66;63.92;98599.44;5100801;28;20036;-40
2022/07/14 08:11:51;;;;;;;10.90;6.22;;;;;;;20.80;65.11;98598.13;5099895;28;20458;-41
2022/07/14 08:17:02;;;;;;;11.65;5.38;;;;;;;21.19;67.79;98581.19;5088795;28;20063;-39
2022/07/14 08:19:27;;;;;;;12.05;8.75;;;;;;;21.30;68.74;98575.69;5082517;28;20032;-40
2022/07/14 08:21:54;;;;;;;21.95;11.20;;;;;;;21.41;68.43;98575.50;5087004;28;20048;-42
2022/07/14 08:24:20;;;;;;;13.73;7.55;;;;;;;21.76;68.30;98574.72;5067083;28;20050;-41
2022/07/14 08:26:46;;;;;;;8.90;5.00;;;;;;;22.21;67.10;98561.44;5087701;28;20036;-40
2022/07/14 08:29:13;;;;;;;32.28;14.80;;;;;;;22.80;65.34;98567.84;5091632;28;20507;-40
2022/07/14 08:31:39;;;;;;;8.40;4.28;;;;;;;23.59;61.39;98581.63;5092324;28;20134;-41
2022/07/14 08:34:08;;;;;;;7.30;4.30;;;;;;;24.70;57.26;98556.31;5097414;28;20057;-40
2022/07/14 08:36:34;;;;;;;6.65;4.40;;;;;;;26.09;52.53;98574.16;5076484;28;20055;-41
2022/07/14 08:39:05;;;;;;;11.82;4.10;;;;;;;26.44;51.10;98578.03;5100055;28;20092;-40
2022/07/14 08:41:36;;;;;;;5.45;3.92;;;;;;;26.96;49.63;98587.88;5074191;28;20071;-40
2022/07/14 08:44:03;;;;;;;8.35;4.30;;;;;;;28.44;45.33;98579.38;5092988;28;20032;-40
2022/07/14 08:46:31;;;;;;;9.65;4.32;;;;;;;29.51;42.18;98571.84;5079017;28;20040;-41
2022/07/14 08:48:59;;;;;;;23.02;11.43;;;;;;;30.47;40.71;98565.25;5100043;28;20550;-41
2022/07/14 08:51:25;;;;;;;22.90;13.40;;;;;;;31.08;39.18;98562.31;5088706;28;20048;-41
2022/07/14 08:53:51;;;;;;;8.10;3.90;;;;;;;31.46;37.67;98568.56;5078057;28;20485;-41
2022/07/14 08:56:17;;;;;;;9.35;4.88;;;;;;;30.72;38.78;98557.41;5092071;28;20071;-41
2022/07/14 08:58:46;;;;;;;7.30;3.72;;;;;;;29.88;40.18;98560.63;5094823;28;20059;-40
2022/07/14 09:01:12;;;;;;;8.80;3.92;;;;;;;29.21;41.51;98559.72;5095707;28;20488;-40
2022/07/14 09:03:38;;;;;;;6.57;4.03;;;;;;;28.85;41.55;98546.56;5097831;28;20040;-41
2022/07/14 09:06:05;;;;;;;25.00;13.40;;;;;;;29.21;40.80;98535.63;5097064;28;20039;-41
2022/07/14 09:08:52;;;;;;;9.52;4.40;;;;;;;30.55;39.03;98538.25;5095952;28;20119;-41
2022/07/14 09:11:19;;;;;;;9.85;4.78;;;;;;;31.43;37.63;98538.63;5093303;28;20085;-42
2022/07/14 09:13:45;;;;;;;10.20;4.40;;;;;;;32.38;35.71;98530.41;5073128;28;20569;-41
2022/07/14 09:16:21;;;;;;;9.23;4.30;;;;;;;32.78;35.16;98524.66;5099567;28;20036;-41
2022/07/14 09:19:05;;;;;;;8.48;5.18;;;;;;;32.83;34.54;98500.59;5075049;28;20075;-41
2022/07/14 09:21:32;;;;;;;6.35;3.53;;;;;;;33.18;33.07;98519.72;5093358;28;20055;-40
2022/07/14 09:23:58;;;;;;;14.85;7.47;;;;;;;32.86;32.89;98500.16;5089077;28;20594;-41
2022/07/14 09:26:24;;;;;;;6.50;3.80;;;;;;;32.56;32.71;98494.63;5087772;28;21456;-40
2022/07/14 09:28:51;;;;;;;15.38;8.35;;;;;;;32.77;33.14;98496.09;5074331;28;20042;-39
2022/07/14 09:31:35;;;;;;;7.47;3.60;;;;;;;33.02;32.08;98504.94;5089583;28;20063;-63
2022/07/14 09:34:05;;;;;;;8.80;5.35;;;;;;;33.11;32.88;98497.38;5095115;28;20453;-63
2022/07/14 09:36:33;;;;;;;7.35;3.40;;;;;;;32.90;32.23;98485.19;5090371;28;20116;-62
2022/07/14 09:39:06;;;;;;;5.70;3.50;;;;;;;32.69;31.64;98489.16;5055629;28;20059;-62
2022/07/14 09:41:50;;;;;;;8.07;4.00;;;;;;;32.96;30.74;98480.78;5090293;28;20044;-63
2022/07/14 09:44:17;;;;;;;6.53;3.83;;;;;;;33.05;30.65;98469.47;5079456;28;20416;-62
2022/07/14 09:46:54;;;;;;;8.48;3.17;;;;;;;32.74;29.54;98481.22;5086194;28;20121;-61
2022/07/14 09:49:23;;;;;;;5.82;3.45;;;;;;;32.18;30.75;98470.56;5087316;28;20062;-62
2022/07/14 09:52:02;;;;;;;8.75;3.33;;;;;;;31.65;31.10;98474.69;5089756;28;20420;-63
2022/07/14 09:54:58;;;;;;;6.88;3.35;;;;;;;31.09;31.51;98467.31;5090034;28;20055;-62
2022/07/14 09:57:26;;;;;;;6.72;3.30;;;;;;;30.92;32.25;98469.63;5074048;28;20117;-63
2022/07/14 09:59:59;;;;;;;6.30;3.60;;;;;;;30.81;32.32;98464.91;5088610;28;20044;-65
2022/07/14 10:02:29;;;;;;;7.30;3.03;;;;;;;30.56;32.50;98450.53;5075268;28;20481;-59
2022/07/14 10:05:05;;;;;;;9.90;3.30;;;;;;;30.07;33.15;98449.13;5077633;28;20131;-61
2022/07/14 10:07:39;;;;;;;9.77;3.28;;;;;;;29.39;34.70;98459.13;5064468;28;20047;-55
2022/07/14 10:10:06;;;;;;;5.50;3.30;;;;;;;28.85;35.51;98452.91;5100754;28;20042;-60
2022/07/14 10:12:33;;;;;;;5.73;2.87;;;;;;;28.30;36.10;98453.81;5044993;28;20036;-60
2022/07/14 10:15:02;;;;;;;10.13;4.45;;;;;;;27.92;37.39;98455.94;5072031;28;20726;-62
2022/07/14 10:17:31;;;;;;;6.00;3.40;;;;;;;27.60;38.77;98451.97;5101440;28;20039;-60
2022/07/14 10:19:57;;;;;;;6.63;3.45;;;;;;;27.31;40.21;98452.88;5093734;28;20135;-59
2022/07/14 10:22:23;;;;;;;9.30;4.57;;;;;;;27.17;40.65;98462.56;5093699;28;20040;-62
2022/07/14 10:24:50;;;;;;;11.48;6.78;;;;;;;26.98;39.94;98453.31;5043332;28;1267226;-61
2022/07/14 10:27:19;;;;;;;9.80;4.30;;;;;;;26.96;40.01;98451.84;5090070;28;20598;-61
2022/07/14 10:29:58;;;;;;;15.10;8.18;;;;;;;27.02;39.73;98451.09;5069427;28;20834;-59
2022/07/14 10:32:57;;;;;;;8.27;4.60;;;;;;;27.34;39.88;98442.63;5082502;28;20671;-58
2022/07/14 10:35:33;;;;;;;7.88;4.32;;;;;;;27.69;39.73;98440.13;5054395;28;20079;-58
2022/07/14 10:38:23;;;;;;;5.55;3.25;;;;;;;27.93;39.19;98436.22;5079486;28;20047;-59
2022/07/14 10:40:51;;;;;;;6.88;3.42;;;;;;;27.94;38.04;98446.75;5057844;28;20062;-59
2022/07/14 10:43:23;;;;;;;3.55;2.90;;;;;;;27.72;38.43;98437.09;5090655;28;20151;-60
2022/07/14 10:45:54;;;;;;;3.67;2.90;;;;;;;27.58;38.35;98427.31;5090768;28;20119;-60
2022/07/14 10:48:34;;;;;;;5.18;3.63;;;;;;;27.76;38.35;98435.69;5072588;28;20043;-59
2022/07/14 10:51:17;;;;;;;6.30;3.20;;;;;;;28.46;36.77;98434.78;5088426;28;20036;-60
2022/07/14 10:54:12;;;;;;;4.78;2.85;;;;;;;29.33;35.10;98429.66;5092005;28;20043;-59
2022/07/14 10:56:40;;;;;;;5.68;3.00;;;;;;;30.65;32.60;98434.00;5063663;28;20538;-62
2022/07/14 10:59:24;;;;;;;4.60;2.90;;;;;;;31.46;30.71;98430.72;5090519;28;20193;-59
2022/07/14 11:02:15;;;;;;;6.05;2.70;;;;;;;30.56;32.13;98432.56;5088042;28;20049;-60
2022/07/14 11:05:21;;;;;;;6.00;2.97;;;;;;;29.61;33.68;98421.44;5090481;28;20044;-57
2022/07/14 11:07:50;;;;;;;7.05;2.88;;;;;;;29.28;34.22;98422.19;5072577;28;20040;-61
2022/07/14 11:10:19;;;;;;;6.18;3.10;;;;;;;28.51;35.68;98425.16;5076893;28;20063;-62
2022/07/14 11:13:00;;;;;;;4.57;2.95;;;;;;;27.83;36.62;98422.38;5092141;28;20581;-60
2022/07/14 11:15:42;;;;;;;5.93;3.15;;;;;;;27.23;37.58;98415.63;5088334;28;20515;-59
2022/07/14 11:18:17;;;;;;;5.13;3.20;;;;;;;27.09;38.25;98428.00;5106793;28;20863;-61
2022/07/14 11:21:16;;;;;;;8.07;3.78;;;;;;;27.87;37.16;98432.50;5090068;28;20044;-59
2022/07/14 11:23:47;;;;;;;4.95;2.78;;;;;;;28.00;38.04;98458.50;5096519;28;20051;-53
2022/07/14 11:26:38;;;;;;;5.63;2.70;;;;;;;26.75;40.35;98439.22;5089626;28;20044;-55
2022/07/14 11:29:05;;;;;;;4.10;2.78;;;;;;;27.29;38.97;98438.88;5088115;28;20450;-54
2022/07/14 11:31:49;;;;;;;4.15;2.58;;;;;;;28.36;36.14;98443.16;5101488;28;20066;-56
2022/07/14 11:37:08;;;;;;;2.42;1.77;;;;;;;29.38;30.59;98460.13;5071397;28;20072;-55
2022/07/14 11:39:41;;;;;;;2.88;1.65;;;;;;;28.42;32.17;98453.06;5063313;28;20047;-55
2022/07/14 11:42:17;;;;;;;2.10;1.80;;;;;;;27.59;33.55;98480.50;5050066;28;20432;-58
2022/07/14 11:44:43;;;;;;;2.50;1.85;;;;;;;26.78;35.40;98464.72;5087155;28;20075;-55
2022/07/14 11:47:29;;;;;;;2.28;1.80;;;;;;;26.32;35.70;98461.41;5090062;28;20114;-54
2022/07/14 11:49:59;;;;;;;2.67;1.92;;;;;;;26.46;35.83;98441.94;5062589;28;20063;-56
2022/07/14 11:52:31;;;;;;;5.10;2.10;;;;;;;26.77;35.83;98449.72;5088510;28;20044;-55